sensor_id;sensor_type;location;lat;lon;timestamp;temperature;humidity
7307;DHT22;3694;48.732;9.248;2023-06-04T00:02:04;12.90;92.70
7307;DHT22;3694;48.732;9.248;2023-06-04T00:04:29;12.70;93.00
7307;DHT22;3694;48.732;9.248;2023-06-04T00:06:55;12.50;93.40
7307;DHT22;3694;48.732;9.248;2023-06-04T00:09:21;12.40;93.50
7307;DHT22;3694;48.732;9.248;2023-06-04T00:11:47;12.30;93.80
7307;DHT22;3694;48.732;9.248;2023-06-04T00:14:13;12.20;94.00
7307;DHT22;3694;48.732;9.248;2023-06-04T00:16:40;12.10;94.60
7307;DHT22;3694;48.732;9.248;2023-06-04T00:19:06;12.00;95.00
7307;DHT22;3694;48.732;9.248;2023-06-04T00:21:32;11.90;95.00
7307;DHT22;3694;48.732;9.248;2023-06-04T00:23:58;11.90;95.20
7307;DHT22;3694;48.732;9.248;2023-06-04T00:26:24;11.80;95.30
7307;DHT22;3694;48.732;9.248;2023-06-04T00:28:50;11.70;95.30
7307;DHT22;3694;48.732;9.248;2023-06-04T00:31:15;11.70;95.60
7307;DHT22;3694;48.732;9.248;2023-06-04T00:33:41;11.60;95.80
7307;DHT22;3694;48.732;9.248;2023-06-04T00:36:07;11.60;95.90
7307;DHT22;3694;48.732;9.248;2023-06-04T00:38:33;11.50;96.10
7307;DHT22;3694;48.732;9.248;2023-06-04T00:40:58;11.40;96.30
7307;DHT22;3694;48.732;9.248;2023-06-04T00:43:24;11.50;96.40
7307;DHT22;3694;48.732;9.248;2023-06-04T00:45:52;11.40;96.90
7307;DHT22;3694;48.732;9.248;2023-06-04T00:48:17;11.30;97.10
7307;DHT22;3694;48.732;9.248;2023-06-04T00:50:43;11.20;97.20
7307;DHT22;3694;48.732;9.248;2023-06-04T00:53:09;11.20;96.80
7307;DHT22;3694;48.732;9.248;2023-06-04T00:55:36;11.20;96.70
7307;DHT22;3694;48.732;9.248;2023-06-04T00:58:01;11.20;96.70
7307;DHT22;3694;48.732;9.248;2023-06-04T01:00:29;11.20;97.00
7307;DHT22;3694;48.732;9.248;2023-06-04T01:02:55;11.20;96.70
7307;DHT22;3694;48.732;9.248;2023-06-04T01:05:40;11.10;97.50
7307;DHT22;3694;48.732;9.248;2023-06-04T01:08:08;11.20;97.00
7307;DHT22;3694;48.732;9.248;2023-06-04T01:10:34;11.10;97.70
7307;DHT22;3694;48.732;9.248;2023-06-04T01:13:00;11.00;97.80
7307;DHT22;3694;48.732;9.248;2023-06-04T01:15:26;10.90;97.90
7307;DHT22;3694;48.732;9.248;2023-06-04T01:17:54;10.90;97.80
7307;DHT22;3694;48.732;9.248;2023-06-04T01:20:34;10.90;97.80
7307;DHT22;3694;48.732;9.248;2023-06-04T01:25:40;11.10;97.40
7307;DHT22;3694;48.732;9.248;2023-06-04T01:28:12;11.10;97.30
7307;DHT22;3694;48.732;9.248;2023-06-04T01:30:40;11.10;97.30
7307;DHT22;3694;48.732;9.248;2023-06-04T01:33:10;11.10;97.20
7307;DHT22;3694;48.732;9.248;2023-06-04T01:35:36;11.10;97.30
7307;DHT22;3694;48.732;9.248;2023-06-04T01:38:02;11.00;97.30
7307;DHT22;3694;48.732;9.248;2023-06-04T01:40:29;10.90;97.60
7307;DHT22;3694;48.732;9.248;2023-06-04T01:42:55;10.80;97.10
7307;DHT22;3694;48.732;9.248;2023-06-04T01:45:22;10.80;97.20
7307;DHT22;3694;48.732;9.248;2023-06-04T01:47:48;10.70;97.00
7307;DHT22;3694;48.732;9.248;2023-06-04T01:50:15;10.70;97.00
7307;DHT22;3694;48.732;9.248;2023-06-04T01:52:40;10.70;96.90
7307;DHT22;3694;48.732;9.248;2023-06-04T01:55:08;10.60;96.70
7307;DHT22;3694;48.732;9.248;2023-06-04T01:57:35;10.60;96.70
7307;DHT22;3694;48.732;9.248;2023-06-04T02:00:02;10.70;96.70
7307;DHT22;3694;48.732;9.248;2023-06-04T02:02:28;10.70;96.70
7307;DHT22;3694;48.732;9.248;2023-06-04T02:04:54;10.60;96.70
7307;DHT22;3694;48.732;9.248;2023-06-04T02:07:20;10.50;96.40
7307;DHT22;3694;48.732;9.248;2023-06-04T02:09:49;10.50;96.40
7307;DHT22;3694;48.732;9.248;2023-06-04T02:12:15;10.40;96.40
7307;DHT22;3694;48.732;9.248;2023-06-04T02:14:40;10.40;96.20
7307;DHT22;3694;48.732;9.248;2023-06-04T02:17:11;10.40;96.30
7307;DHT22;3694;48.732;9.248;2023-06-04T02:19:40;10.40;96.40
7307;DHT22;3694;48.732;9.248;2023-06-04T02:22:12;10.40;96.70
7307;DHT22;3694;48.732;9.248;2023-06-04T02:24:38;10.40;96.70
7307;DHT22;3694;48.732;9.248;2023-06-04T02:27:05;10.30;96.80
7307;DHT22;3694;48.732;9.248;2023-06-04T02:29:31;10.30;96.70
7307;DHT22;3694;48.732;9.248;2023-06-04T02:31:57;10.30;96.70
7307;DHT22;3694;48.732;9.248;2023-06-04T02:34:22;10.20;96.70
7307;DHT22;3694;48.732;9.248;2023-06-04T02:36:49;10.20;96.40
7307;DHT22;3694;48.732;9.248;2023-06-04T02:39:16;10.30;96.50
7307;DHT22;3694;48.732;9.248;2023-06-04T02:41:42;10.30;96.00
7307;DHT22;3694;48.732;9.248;2023-06-04T02:44:07;10.20;95.70
7307;DHT22;3694;48.732;9.248;2023-06-04T02:46:33;10.20;95.80
7307;DHT22;3694;48.732;9.248;2023-06-04T02:48:58;10.20;95.70
7307;DHT22;3694;48.732;9.248;2023-06-04T02:51:24;10.10;95.80
7307;DHT22;3694;48.732;9.248;2023-06-04T02:53:50;10.20;96.00
7307;DHT22;3694;48.732;9.248;2023-06-04T02:56:15;10.20;96.20
7307;DHT22;3694;48.732;9.248;2023-06-04T02:58:51;10.20;96.30
7307;DHT22;3694;48.732;9.248;2023-06-04T03:01:22;10.30;96.40
7307;DHT22;3694;48.732;9.248;2023-06-04T03:03:48;10.30;96.70
7307;DHT22;3694;48.732;9.248;2023-06-04T03:06:14;10.20;96.90
7307;DHT22;3694;48.732;9.248;2023-06-04T03:08:41;10.20;97.10
7307;DHT22;3694;48.732;9.248;2023-06-04T03:11:07;10.00;97.10
7307;DHT22;3694;48.732;9.248;2023-06-04T03:13:32;9.90;97.60
7307;DHT22;3694;48.732;9.248;2023-06-04T03:15:58;9.90;97.70
7307;DHT22;3694;48.732;9.248;2023-06-04T03:18:29;10.00;97.20
7307;DHT22;3694;48.732;9.248;2023-06-04T03:20:55;10.00;97.50
7307;DHT22;3694;48.732;9.248;2023-06-04T03:23:21;10.00;97.60
7307;DHT22;3694;48.732;9.248;2023-06-04T03:25:47;10.10;97.80
7307;DHT22;3694;48.732;9.248;2023-06-04T03:28:13;10.10;97.90
7307;DHT22;3694;48.732;9.248;2023-06-04T03:30:40;10.00;98.00
7307;DHT22;3694;48.732;9.248;2023-06-04T03:33:07;10.00;98.40
7307;DHT22;3694;48.732;9.248;2023-06-04T03:35:32;10.10;98.20
7307;DHT22;3694;48.732;9.248;2023-06-04T03:37:58;10.10;98.00
7307;DHT22;3694;48.732;9.248;2023-06-04T03:40:24;10.10;98.10
7307;DHT22;3694;48.732;9.248;2023-06-04T03:42:50;10.10;98.10
7307;DHT22;3694;48.732;9.248;2023-06-04T03:45:15;10.10;98.20
7307;DHT22;3694;48.732;9.248;2023-06-04T03:47:41;10.20;98.40
7307;DHT22;3694;48.732;9.248;2023-06-04T03:50:07;10.20;98.30
7307;DHT22;3694;48.732;9.248;2023-06-04T03:52:32;10.30;98.20
7307;DHT22;3694;48.732;9.248;2023-06-04T03:54:58;10.40;98.00
7307;DHT22;3694;48.732;9.248;2023-06-04T03:57:24;10.50;97.70
7307;DHT22;3694;48.732;9.248;2023-06-04T03:59:49;10.50;97.90
7307;DHT22;3694;48.732;9.248;2023-06-04T04:02:15;10.60;97.60
7307;DHT22;3694;48.732;9.248;2023-06-04T04:04:42;10.60;97.40
7307;DHT22;3694;48.732;9.248;2023-06-04T04:07:08;10.70;97.30
7307;DHT22;3694;48.732;9.248;2023-06-04T04:09:34;10.80;97.00
7307;DHT22;3694;48.732;9.248;2023-06-04T04:11:59;10.80;96.80
7307;DHT22;3694;48.732;9.248;2023-06-04T04:14:25;10.80;96.60
7307;DHT22;3694;48.732;9.248;2023-06-04T04:16:50;10.90;96.40
7307;DHT22;3694;48.732;9.248;2023-06-04T04:19:16;11.00;95.90
7307;DHT22;3694;48.732;9.248;2023-06-04T04:21:42;11.10;95.70
7307;DHT22;3694;48.732;9.248;2023-06-04T04:24:08;11.20;95.30
7307;DHT22;3694;48.732;9.248;2023-06-04T04:26:34;11.30;95.10
7307;DHT22;3694;48.732;9.248;2023-06-04T04:29:00;11.50;95.40
7307;DHT22;3694;48.732;9.248;2023-06-04T04:31:28;11.70;95.10
7307;DHT22;3694;48.732;9.248;2023-06-04T04:33:55;12.00;94.70
7307;DHT22;3694;48.732;9.248;2023-06-04T04:36:21;12.00;94.90
7307;DHT22;3694;48.732;9.248;2023-06-04T04:38:46;12.30;94.50
7307;DHT22;3694;48.732;9.248;2023-06-04T04:41:19;12.50;93.80
7307;DHT22;3694;48.732;9.248;2023-06-04T04:43:46;12.70;93.30
7307;DHT22;3694;48.732;9.248;2023-06-04T04:46:11;12.80;92.80
7307;DHT22;3694;48.732;9.248;2023-06-04T04:48:37;12.90;92.40
7307;DHT22;3694;48.732;9.248;2023-06-04T04:51:04;13.00;92.50
7307;DHT22;3694;48.732;9.248;2023-06-04T04:53:29;13.10;92.20
7307;DHT22;3694;48.732;9.248;2023-06-04T04:55:55;13.20;91.90
7307;DHT22;3694;48.732;9.248;2023-06-04T04:58:20;13.40;91.90
7307;DHT22;3694;48.732;9.248;2023-06-04T05:00:46;13.40;91.80
7307;DHT22;3694;48.732;9.248;2023-06-04T05:03:13;13.60;91.80
7307;DHT22;3694;48.732;9.248;2023-06-04T05:05:38;13.70;91.70
7307;DHT22;3694;48.732;9.248;2023-06-04T05:08:04;13.70;91.90
7307;DHT22;3694;48.732;9.248;2023-06-04T05:10:30;13.90;91.60
7307;DHT22;3694;48.732;9.248;2023-06-04T05:12:58;13.90;91.00
7307;DHT22;3694;48.732;9.248;2023-06-04T05:15:25;14.20;91.30
7307;DHT22;3694;48.732;9.248;2023-06-04T05:17:52;15.00;90.80
7307;DHT22;3694;48.732;9.248;2023-06-04T05:20:19;15.90;90.10
7307;DHT22;3694;48.732;9.248;2023-06-04T05:22:46;16.60;87.20
7307;DHT22;3694;48.732;9.248;2023-06-04T05:25:12;17.90;81.60
7307;DHT22;3694;48.732;9.248;2023-06-04T05:27:39;18.90;75.10
7307;DHT22;3694;48.732;9.248;2023-06-04T05:30:06;19.60;73.10
7307;DHT22;3694;48.732;9.248;2023-06-04T05:32:32;20.10;71.60
7307;DHT22;3694;48.732;9.248;2023-06-04T05:34:59;20.70;70.10
7307;DHT22;3694;48.732;9.248;2023-06-04T05:37:25;21.20;66.40
7307;DHT22;3694;48.732;9.248;2023-06-04T05:39:55;21.50;65.10
7307;DHT22;3694;48.732;9.248;2023-06-04T05:42:21;21.80;64.20
7307;DHT22;3694;48.732;9.248;2023-06-04T05:44:47;21.90;62.30
7307;DHT22;3694;48.732;9.248;2023-06-04T05:47:14;21.80;62.50
7307;DHT22;3694;48.732;9.248;2023-06-04T05:49:40;21.70;62.60
7307;DHT22;3694;48.732;9.248;2023-06-04T05:52:06;21.60;60.90
7307;DHT22;3694;48.732;9.248;2023-06-04T05:54:31;21.60;61.20
7307;DHT22;3694;48.732;9.248;2023-06-04T05:56:58;21.50;57.30
7307;DHT22;3694;48.732;9.248;2023-06-04T05:59:23;20.80;59.90
7307;DHT22;3694;48.732;9.248;2023-06-04T06:01:49;20.40;61.10
7307;DHT22;3694;48.732;9.248;2023-06-04T06:04:15;19.40;60.30
7307;DHT22;3694;48.732;9.248;2023-06-04T06:06:41;18.80;62.10
7307;DHT22;3694;48.732;9.248;2023-06-04T06:09:09;18.10;65.00
7307;DHT22;3694;48.732;9.248;2023-06-04T06:11:35;17.80;63.70
7307;DHT22;3694;48.732;9.248;2023-06-04T06:14:01;17.70;64.70
7307;DHT22;3694;48.732;9.248;2023-06-04T06:16:27;17.90;65.10
7307;DHT22;3694;48.732;9.248;2023-06-04T06:18:52;18.70;65.40
7307;DHT22;3694;48.732;9.248;2023-06-04T06:21:19;20.00;64.40
7307;DHT22;3694;48.732;9.248;2023-06-04T06:23:44;21.10;63.20
7307;DHT22;3694;48.732;9.248;2023-06-04T06:26:10;21.70;59.80
7307;DHT22;3694;48.732;9.248;2023-06-04T06:28:35;22.10;59.40
7307;DHT22;3694;48.732;9.248;2023-06-04T06:31:01;22.70;59.30
7307;DHT22;3694;48.732;9.248;2023-06-04T06:33:27;22.90;61.10
7307;DHT22;3694;48.732;9.248;2023-06-04T06:35:53;22.90;57.80
7307;DHT22;3694;48.732;9.248;2023-06-04T06:38:18;23.60;59.00
7307;DHT22;3694;48.732;9.248;2023-06-04T06:40:44;23.70;60.00
7307;DHT22;3694;48.732;9.248;2023-06-04T06:43:10;23.70;58.10
7307;DHT22;3694;48.732;9.248;2023-06-04T06:45:36;23.60;56.60
7307;DHT22;3694;48.732;9.248;2023-06-04T06:48:01;23.40;57.30
7307;DHT22;3694;48.732;9.248;2023-06-04T06:50:27;23.40;58.50
7307;DHT22;3694;48.732;9.248;2023-06-04T06:52:52;23.60;57.30
7307;DHT22;3694;48.732;9.248;2023-06-04T06:55:18;23.20;58.00
7307;DHT22;3694;48.732;9.248;2023-06-04T06:57:44;23.20;58.50
7307;DHT22;3694;48.732;9.248;2023-06-04T07:00:10;23.50;57.50
7307;DHT22;3694;48.732;9.248;2023-06-04T07:02:36;23.90;57.80
7307;DHT22;3694;48.732;9.248;2023-06-04T07:05:02;24.00;56.80
7307;DHT22;3694;48.732;9.248;2023-06-04T07:07:28;24.40;58.70
7307;DHT22;3694;48.732;9.248;2023-06-04T07:09:53;24.60;58.70
7307;DHT22;3694;48.732;9.248;2023-06-04T07:12:19;25.40;55.70
7307;DHT22;3694;48.732;9.248;2023-06-04T07:14:44;25.60;57.70
7307;DHT22;3694;48.732;9.248;2023-06-04T07:17:10;25.70;55.60
7307;DHT22;3694;48.732;9.248;2023-06-04T07:19:36;25.90;54.00
7307;DHT22;3694;48.732;9.248;2023-06-04T07:22:01;25.90;55.90
7307;DHT22;3694;48.732;9.248;2023-06-04T07:24:27;25.80;55.60
7307;DHT22;3694;48.732;9.248;2023-06-04T07:26:53;25.30;53.30
7307;DHT22;3694;48.732;9.248;2023-06-04T07:29:19;25.20;56.40
7307;DHT22;3694;48.732;9.248;2023-06-04T07:31:44;25.30;55.30
7307;DHT22;3694;48.732;9.248;2023-06-04T07:34:10;25.50;53.90
7307;DHT22;3694;48.732;9.248;2023-06-04T07:36:36;25.70;55.30
7307;DHT22;3694;48.732;9.248;2023-06-04T07:39:02;25.90;54.40
7307;DHT22;3694;48.732;9.248;2023-06-04T07:41:30;26.10;54.10
7307;DHT22;3694;48.732;9.248;2023-06-04T07:43:55;26.20;53.20
7307;DHT22;3694;48.732;9.248;2023-06-04T07:46:21;26.00;54.00
7307;DHT22;3694;48.732;9.248;2023-06-04T07:48:46;25.50;53.50
7307;DHT22;3694;48.732;9.248;2023-06-04T07:51:13;25.80;53.30
7307;DHT22;3694;48.732;9.248;2023-06-04T07:53:38;25.90;53.20
7307;DHT22;3694;48.732;9.248;2023-06-04T07:56:05;26.10;55.80
7307;DHT22;3694;48.732;9.248;2023-06-04T07:58:30;25.90;52.50
7307;DHT22;3694;48.732;9.248;2023-06-04T08:00:56;26.00;52.40
7307;DHT22;3694;48.732;9.248;2023-06-04T08:03:22;26.00;53.50
7307;DHT22;3694;48.732;9.248;2023-06-04T08:05:48;25.70;52.30
7307;DHT22;3694;48.732;9.248;2023-06-04T08:08:15;25.80;55.90
7307;DHT22;3694;48.732;9.248;2023-06-04T08:10:40;25.80;53.40
7307;DHT22;3694;48.732;9.248;2023-06-04T08:13:07;25.90;55.00
7307;DHT22;3694;48.732;9.248;2023-06-04T08:15:33;25.70;55.90
7307;DHT22;3694;48.732;9.248;2023-06-04T08:17:59;25.70;56.40
7307;DHT22;3694;48.732;9.248;2023-06-04T08:20:25;25.70;53.70
7307;DHT22;3694;48.732;9.248;2023-06-04T08:22:51;26.10;54.10
7307;DHT22;3694;48.732;9.248;2023-06-04T08:25:16;26.50;53.50
7307;DHT22;3694;48.732;9.248;2023-06-04T08:27:42;26.50;54.30
7307;DHT22;3694;48.732;9.248;2023-06-04T08:30:09;26.40;55.10
7307;DHT22;3694;48.732;9.248;2023-06-04T08:32:35;26.40;55.90
7307;DHT22;3694;48.732;9.248;2023-06-04T08:35:01;26.00;52.60
7307;DHT22;3694;48.732;9.248;2023-06-04T08:37:26;25.50;54.90
7307;DHT22;3694;48.732;9.248;2023-06-04T08:39:52;25.50;54.50
7307;DHT22;3694;48.732;9.248;2023-06-04T08:42:30;25.40;56.30
7307;DHT22;3694;48.732;9.248;2023-06-04T08:44:58;24.90;55.60
7307;DHT22;3694;48.732;9.248;2023-06-04T08:47:25;25.20;54.90
7307;DHT22;3694;48.732;9.248;2023-06-04T08:49:56;25.40;55.60
7307;DHT22;3694;48.732;9.248;2023-06-04T08:52:24;25.70;55.00
7307;DHT22;3694;48.732;9.248;2023-06-04T08:54:51;25.50;54.00
7307;DHT22;3694;48.732;9.248;2023-06-04T08:57:18;25.50;55.70
7307;DHT22;3694;48.732;9.248;2023-06-04T08:59:45;25.20;56.10
7307;DHT22;3694;48.732;9.248;2023-06-04T09:02:12;25.30;57.30
7307;DHT22;3694;48.732;9.248;2023-06-04T09:04:40;25.60;54.40
7307;DHT22;3694;48.732;9.248;2023-06-04T09:07:06;25.50;53.50
7307;DHT22;3694;48.732;9.248;2023-06-04T09:09:38;25.50;54.80
7307;DHT22;3694;48.732;9.248;2023-06-04T09:12:08;25.40;54.30
7307;DHT22;3694;48.732;9.248;2023-06-04T09:14:34;25.50;53.50
7307;DHT22;3694;48.732;9.248;2023-06-04T09:17:00;25.50;53.40
7307;DHT22;3694;48.732;9.248;2023-06-04T09:19:25;25.40;54.00
7307;DHT22;3694;48.732;9.248;2023-06-04T09:21:57;25.80;53.30
7307;DHT22;3694;48.732;9.248;2023-06-04T09:24:24;25.90;53.80
7307;DHT22;3694;48.732;9.248;2023-06-04T09:26:51;25.90;54.20
7307;DHT22;3694;48.732;9.248;2023-06-04T09:29:17;25.90;52.20
7307;DHT22;3694;48.732;9.248;2023-06-04T09:31:46;26.20;54.90
7307;DHT22;3694;48.732;9.248;2023-06-04T09:34:13;26.20;52.90
7307;DHT22;3694;48.732;9.248;2023-06-04T09:36:40;25.70;55.00
7307;DHT22;3694;48.732;9.248;2023-06-04T09:39:18;25.50;54.00
7307;DHT22;3694;48.732;9.248;2023-06-04T09:41:44;25.30;54.90
7307;DHT22;3694;48.732;9.248;2023-06-04T09:44:10;25.70;52.50
7307;DHT22;3694;48.732;9.248;2023-06-04T09:46:38;25.90;54.70
7307;DHT22;3694;48.732;9.248;2023-06-04T09:49:05;26.20;52.50
7307;DHT22;3694;48.732;9.248;2023-06-04T09:51:31;26.40;52.60
7307;DHT22;3694;48.732;9.248;2023-06-04T09:54:02;26.40;50.90
7307;DHT22;3694;48.732;9.248;2023-06-04T09:56:28;26.60;53.80
7307;DHT22;3694;48.732;9.248;2023-06-04T09:58:56;26.80;53.30
7307;DHT22;3694;48.732;9.248;2023-06-04T10:01:23;26.60;53.40
7307;DHT22;3694;48.732;9.248;2023-06-04T10:03:52;26.40;50.50
7307;DHT22;3694;48.732;9.248;2023-06-04T10:06:19;26.30;52.20
7307;DHT22;3694;48.732;9.248;2023-06-04T10:08:46;26.30;54.30
7307;DHT22;3694;48.732;9.248;2023-06-04T10:11:13;26.60;53.40
7307;DHT22;3694;48.732;9.248;2023-06-04T10:13:48;26.90;53.80
7307;DHT22;3694;48.732;9.248;2023-06-04T10:16:13;26.60;51.20
7307;DHT22;3694;48.732;9.248;2023-06-04T10:18:39;26.70;51.10
7307;DHT22;3694;48.732;9.248;2023-06-04T10:21:06;26.80;53.10
7307;DHT22;3694;48.732;9.248;2023-06-04T10:23:33;26.80;51.30
7307;DHT22;3694;48.732;9.248;2023-06-04T10:25:59;26.90;51.80
7307;DHT22;3694;48.732;9.248;2023-06-04T10:28:25;27.10;49.70
7307;DHT22;3694;48.732;9.248;2023-06-04T10:30:51;27.10;53.20
7307;DHT22;3694;48.732;9.248;2023-06-04T10:33:18;27.20;52.40
7307;DHT22;3694;48.732;9.248;2023-06-04T10:35:45;27.20;48.60
7307;DHT22;3694;48.732;9.248;2023-06-04T10:38:13;27.20;50.40
7307;DHT22;3694;48.732;9.248;2023-06-04T10:40:40;27.40;48.50
7307;DHT22;3694;48.732;9.248;2023-06-04T10:43:10;26.90;50.30
7307;DHT22;3694;48.732;9.248;2023-06-04T10:45:36;27.10;50.60
7307;DHT22;3694;48.732;9.248;2023-06-04T10:48:09;27.30;50.80
7307;DHT22;3694;48.732;9.248;2023-06-04T10:50:47;27.30;52.30
7307;DHT22;3694;48.732;9.248;2023-06-04T10:53:12;27.50;51.20
7307;DHT22;3694;48.732;9.248;2023-06-04T10:55:45;27.20;52.60
7307;DHT22;3694;48.732;9.248;2023-06-04T10:58:11;27.30;52.40
7307;DHT22;3694;48.732;9.248;2023-06-04T11:00:38;26.70;49.40
7307;DHT22;3694;48.732;9.248;2023-06-04T11:03:11;25.70;48.70
7307;DHT22;3694;48.732;9.248;2023-06-04T11:05:42;24.70;48.50
7307;DHT22;3694;48.732;9.248;2023-06-04T11:08:08;24.70;50.80
7307;DHT22;3694;48.732;9.248;2023-06-04T11:10:37;25.10;52.50
7307;DHT22;3694;48.732;9.248;2023-06-04T11:13:04;25.60;53.70
7307;DHT22;3694;48.732;9.248;2023-06-04T11:15:44;25.80;51.90
7307;DHT22;3694;48.732;9.248;2023-06-04T11:18:17;26.10;51.70
7307;DHT22;3694;48.732;9.248;2023-06-04T11:20:49;26.60;48.40
7307;DHT22;3694;48.732;9.248;2023-06-04T11:23:15;26.80;52.20
7307;DHT22;3694;48.732;9.248;2023-06-04T11:25:42;27.30;55.40
7307;DHT22;3694;48.732;9.248;2023-06-04T11:28:13;27.40;52.00
7307;DHT22;3694;48.732;9.248;2023-06-04T11:30:39;27.30;51.00
7307;DHT22;3694;48.732;9.248;2023-06-04T11:33:05;27.70;50.20
7307;DHT22;3694;48.732;9.248;2023-06-04T11:35:38;27.60;47.00
7307;DHT22;3694;48.732;9.248;2023-06-04T11:38:05;27.90;52.70
7307;DHT22;3694;48.732;9.248;2023-06-04T11:40:30;28.10;49.80
7307;DHT22;3694;48.732;9.248;2023-06-04T11:42:56;28.00;50.90
7307;DHT22;3694;48.732;9.248;2023-06-04T11:45:23;28.40;49.90
7307;DHT22;3694;48.732;9.248;2023-06-04T11:47:52;28.40;51.40
7307;DHT22;3694;48.732;9.248;2023-06-04T11:50:19;28.20;48.60
7307;DHT22;3694;48.732;9.248;2023-06-04T11:52:46;28.00;46.80
7307;DHT22;3694;48.732;9.248;2023-06-04T11:55:12;28.30;49.50
7307;DHT22;3694;48.732;9.248;2023-06-04T11:57:39;28.10;49.00
7307;DHT22;3694;48.732;9.248;2023-06-04T12:00:06;28.00;47.10
7307;DHT22;3694;48.732;9.248;2023-06-04T12:02:47;27.70;46.70
7307;DHT22;3694;48.732;9.248;2023-06-04T12:05:14;27.90;47.80
7307;DHT22;3694;48.732;9.248;2023-06-04T12:07:40;28.20;49.70
7307;DHT22;3694;48.732;9.248;2023-06-04T12:10:07;28.30;48.20
7307;DHT22;3694;48.732;9.248;2023-06-04T12:12:34;28.40;47.00
7307;DHT22;3694;48.732;9.248;2023-06-04T12:15:00;28.20;47.00
7307;DHT22;3694;48.732;9.248;2023-06-04T12:17:26;27.50;47.00
7307;DHT22;3694;48.732;9.248;2023-06-04T12:19:52;26.80;47.30
7307;DHT22;3694;48.732;9.248;2023-06-04T12:22:18;26.60;50.10
7307;DHT22;3694;48.732;9.248;2023-06-04T12:24:49;26.90;48.50
7307;DHT22;3694;48.732;9.248;2023-06-04T12:27:18;26.50;47.00
7307;DHT22;3694;48.732;9.248;2023-06-04T12:29:54;26.10;50.10
7307;DHT22;3694;48.732;9.248;2023-06-04T12:32:20;26.40;50.10
7307;DHT22;3694;48.732;9.248;2023-06-04T12:34:46;26.80;49.10
7307;DHT22;3694;48.732;9.248;2023-06-04T12:37:12;26.80;46.40
7307;DHT22;3694;48.732;9.248;2023-06-04T12:39:38;26.70;47.00
7307;DHT22;3694;48.732;9.248;2023-06-04T12:42:05;26.70;46.30
7307;DHT22;3694;48.732;9.248;2023-06-04T12:44:32;27.00;48.70
7307;DHT22;3694;48.732;9.248;2023-06-04T12:46:57;26.70;48.80
7307;DHT22;3694;48.732;9.248;2023-06-04T12:49:23;26.10;46.30
7307;DHT22;3694;48.732;9.248;2023-06-04T12:51:48;25.40;48.60
7307;DHT22;3694;48.732;9.248;2023-06-04T12:54:14;25.60;48.50
7307;DHT22;3694;48.732;9.248;2023-06-04T12:56:40;25.10;47.20
7307;DHT22;3694;48.732;9.248;2023-06-04T12:59:09;24.80;50.90
7307;DHT22;3694;48.732;9.248;2023-06-04T13:01:34;25.30;49.90
7307;DHT22;3694;48.732;9.248;2023-06-04T13:04:00;25.40;48.20
7307;DHT22;3694;48.732;9.248;2023-06-04T13:06:26;25.10;47.60
7307;DHT22;3694;48.732;9.248;2023-06-04T13:08:52;24.90;47.00
7307;DHT22;3694;48.732;9.248;2023-06-04T13:11:17;24.50;46.80
7307;DHT22;3694;48.732;9.248;2023-06-04T13:13:43;24.90;46.30
7307;DHT22;3694;48.732;9.248;2023-06-04T13:16:09;25.50;49.30
7307;DHT22;3694;48.732;9.248;2023-06-04T13:18:35;26.10;47.20
7307;DHT22;3694;48.732;9.248;2023-06-04T13:21:00;26.30;46.60
7307;DHT22;3694;48.732;9.248;2023-06-04T13:23:27;26.60;48.20
7307;DHT22;3694;48.732;9.248;2023-06-04T13:25:52;26.70;48.10
7307;DHT22;3694;48.732;9.248;2023-06-04T13:28:18;26.60;48.40
7307;DHT22;3694;48.732;9.248;2023-06-04T13:30:43;26.40;47.70
7307;DHT22;3694;48.732;9.248;2023-06-04T13:33:09;25.70;45.50
7307;DHT22;3694;48.732;9.248;2023-06-04T13:35:35;25.20;45.80
7307;DHT22;3694;48.732;9.248;2023-06-04T13:38:03;25.50;46.20
7307;DHT22;3694;48.732;9.248;2023-06-04T13:40:29;25.90;44.00
7307;DHT22;3694;48.732;9.248;2023-06-04T13:42:54;26.40;45.30
7307;DHT22;3694;48.732;9.248;2023-06-04T13:45:20;27.10;43.90
7307;DHT22;3694;48.732;9.248;2023-06-04T13:47:47;27.40;43.20
7307;DHT22;3694;48.732;9.248;2023-06-04T13:50:16;27.30;43.10
7307;DHT22;3694;48.732;9.248;2023-06-04T13:52:41;27.40;45.30
7307;DHT22;3694;48.732;9.248;2023-06-04T13:55:07;27.30;44.50
7307;DHT22;3694;48.732;9.248;2023-06-04T13:57:33;27.40;44.30
7307;DHT22;3694;48.732;9.248;2023-06-04T13:59:59;27.30;43.80
7307;DHT22;3694;48.732;9.248;2023-06-04T14:02:24;26.90;43.90
7307;DHT22;3694;48.732;9.248;2023-06-04T14:04:50;26.70;44.30
7307;DHT22;3694;48.732;9.248;2023-06-04T14:07:16;26.70;44.70
7307;DHT22;3694;48.732;9.248;2023-06-04T14:09:42;26.80;45.10
7307;DHT22;3694;48.732;9.248;2023-06-04T14:12:08;26.90;44.10
7307;DHT22;3694;48.732;9.248;2023-06-04T14:14:34;27.10;46.00
7307;DHT22;3694;48.732;9.248;2023-06-04T14:17:03;27.00;45.60
7307;DHT22;3694;48.732;9.248;2023-06-04T14:19:29;26.70;45.30
7307;DHT22;3694;48.732;9.248;2023-06-04T14:21:55;26.60;47.00
7307;DHT22;3694;48.732;9.248;2023-06-04T14:24:21;26.30;44.90
7307;DHT22;3694;48.732;9.248;2023-06-04T14:26:46;26.10;45.60
7307;DHT22;3694;48.732;9.248;2023-06-04T14:29:12;26.10;44.60
7307;DHT22;3694;48.732;9.248;2023-06-04T14:31:38;26.40;45.40
7307;DHT22;3694;48.732;9.248;2023-06-04T14:34:04;26.70;42.90
7307;DHT22;3694;48.732;9.248;2023-06-04T14:36:30;26.90;43.10
7307;DHT22;3694;48.732;9.248;2023-06-04T14:38:56;27.00;46.80
7307;DHT22;3694;48.732;9.248;2023-06-04T14:41:22;27.10;42.60
7307;DHT22;3694;48.732;9.248;2023-06-04T14:43:47;26.80;42.60
7307;DHT22;3694;48.732;9.248;2023-06-04T14:46:13;26.70;44.70
7307;DHT22;3694;48.732;9.248;2023-06-04T14:48:38;26.70;41.40
7307;DHT22;3694;48.732;9.248;2023-06-04T14:51:04;26.80;42.70
7307;DHT22;3694;48.732;9.248;2023-06-04T14:53:30;26.70;42.70
7307;DHT22;3694;48.732;9.248;2023-06-04T14:55:56;26.70;45.10
7307;DHT22;3694;48.732;9.248;2023-06-04T14:58:21;26.50;43.20
7307;DHT22;3694;48.732;9.248;2023-06-04T15:00:47;26.40;43.30
7307;DHT22;3694;48.732;9.248;2023-06-04T15:03:13;26.20;44.00
7307;DHT22;3694;48.732;9.248;2023-06-04T15:05:38;25.90;44.10
7307;DHT22;3694;48.732;9.248;2023-06-04T15:08:04;25.70;42.90
7307;DHT22;3694;48.732;9.248;2023-06-04T15:10:30;25.80;42.00
7307;DHT22;3694;48.732;9.248;2023-06-04T15:12:56;25.90;44.80
7307;DHT22;3694;48.732;9.248;2023-06-04T15:15:22;26.00;42.00
7307;DHT22;3694;48.732;9.248;2023-06-04T15:17:49;26.10;42.80
7307;DHT22;3694;48.732;9.248;2023-06-04T15:20:15;25.80;40.60
7307;DHT22;3694;48.732;9.248;2023-06-04T15:22:41;25.70;42.50
7307;DHT22;3694;48.732;9.248;2023-06-04T15:25:07;25.40;42.30
7307;DHT22;3694;48.732;9.248;2023-06-04T15:27:33;25.00;44.50
7307;DHT22;3694;48.732;9.248;2023-06-04T15:29:58;24.80;42.90
7307;DHT22;3694;48.732;9.248;2023-06-04T15:32:24;24.80;42.50
7307;DHT22;3694;48.732;9.248;2023-06-04T15:34:50;24.90;43.30
7307;DHT22;3694;48.732;9.248;2023-06-04T15:37:15;24.90;44.30
7307;DHT22;3694;48.732;9.248;2023-06-04T15:39:41;24.70;44.30
7307;DHT22;3694;48.732;9.248;2023-06-04T15:42:07;24.80;44.20
7307;DHT22;3694;48.732;9.248;2023-06-04T15:44:33;24.60;44.30
7307;DHT22;3694;48.732;9.248;2023-06-04T15:46:59;24.40;43.60
7307;DHT22;3694;48.732;9.248;2023-06-04T15:49:25;24.40;43.20
7307;DHT22;3694;48.732;9.248;2023-06-04T15:51:51;24.20;43.40
7307;DHT22;3694;48.732;9.248;2023-06-04T15:54:16;24.10;43.10
7307;DHT22;3694;48.732;9.248;2023-06-04T15:56:42;24.00;43.80
7307;DHT22;3694;48.732;9.248;2023-06-04T15:59:07;24.10;44.70
7307;DHT22;3694;48.732;9.248;2023-06-04T16:01:33;24.10;43.30